createdAt,value
2019-03-18T00:00:14.484Z,95.50
2019-03-18T00:02:41.821Z,95.50
2019-03-18T00:05:09.155Z,95.50
2019-03-18T00:07:36.384Z,95.50
2019-03-18T00:10:03.992Z,95.40
2019-03-18T00:12:31.335Z,95.50
2019-03-18T00:15:01.635Z,95.50
2019-03-18T00:17:27.785Z,95.50
2019-03-18T00:19:55.135Z,95.50
2019-03-18T00:22:22.429Z,95.50
2019-03-18T00:24:49.795Z,95.60
2019-03-18T00:27:17.104Z,95.50
2019-03-18T00:29:44.478Z,95.50
2019-03-18T00:32:11.965Z,95.50
2019-03-18T00:34:39.317Z,95.40
2019-03-18T00:37:06.639Z,95.30
2019-03-18T00:39:34.001Z,95.30
2019-03-18T00:42:01.503Z,95.30
2019-03-18T00:44:28.724Z,95.30
2019-03-18T00:46:56.175Z,95.40
2019-03-18T00:49:23.457Z,95.40
2019-03-18T00:51:50.693Z,95.40
2019-03-18T00:54:18.000Z,95.50
2019-03-18T00:56:45.317Z,95.40
2019-03-18T00:59:12.637Z,95.50
2019-03-18T01:01:39.926Z,95.50
2019-03-18T01:04:07.101Z,95.60
2019-03-18T01:06:34.430Z,95.60
2019-03-18T01:09:02.763Z,95.60
2019-03-18T01:11:29.979Z,95.60
2019-03-18T01:13:57.200Z,95.60
2019-03-18T01:16:24.541Z,95.60
2019-03-18T01:18:51.857Z,95.70
2019-03-18T01:21:19.193Z,95.70
2019-03-18T01:23:46.512Z,95.70
2019-03-18T01:26:13.812Z,95.70
2019-03-18T01:28:41.015Z,95.80
2019-03-18T01:31:08.326Z,95.90
2019-03-18T01:33:35.647Z,95.90
2019-03-18T01:36:02.973Z,95.90
2019-03-18T01:38:30.946Z,95.90
2019-03-18T01:40:58.228Z,96.00
2019-03-18T01:43:25.568Z,96.00
2019-03-18T01:45:52.872Z,95.90
2019-03-18T01:48:20.183Z,96.30
2019-03-18T01:50:47.531Z,96.00
2019-03-18T01:53:14.725Z,95.90
2019-03-18T01:55:42.069Z,95.90
2019-03-18T01:58:09.429Z,95.90
2019-03-18T02:00:37.101Z,95.90
2019-03-18T02:03:04.427Z,95.90
2019-03-18T02:05:31.728Z,95.90
2019-03-18T02:07:59.059Z,95.90
2019-03-18T02:10:26.376Z,95.90
2019-03-18T02:12:53.689Z,95.80
2019-03-18T02:15:21.003Z,95.80
2019-03-18T02:17:48.199Z,95.70
2019-03-18T02:20:15.523Z,95.70
2019-03-18T02:22:42.745Z,95.60
2019-03-18T02:25:09.966Z,95.60
2019-03-18T02:27:37.171Z,95.50
2019-03-18T02:30:05.209Z,95.50
2019-03-18T02:32:32.519Z,95.40
2019-03-18T02:34:59.922Z,95.30
2019-03-18T02:37:27.220Z,95.30
2019-03-18T02:39:54.404Z,95.30
2019-03-18T02:42:21.713Z,95.20
2019-03-18T02:44:48.908Z,95.20
2019-03-18T02:47:16.162Z,95.20
2019-03-18T02:49:43.488Z,95.20
2019-03-18T02:52:11.072Z,95.10
2019-03-18T02:54:38.265Z,95.10
2019-03-18T02:57:05.598Z,95.10
2019-03-18T02:59:32.899Z,95.00
2019-03-18T03:02:00.231Z,95.10
2019-03-18T03:04:27.641Z,95.00
2019-03-18T03:06:54.978Z,95.00
2019-03-18T03:09:22.362Z,95.00
2019-03-18T03:11:49.681Z,95.00
2019-03-18T03:14:17.057Z,94.90
2019-03-18T03:16:44.358Z,94.90
2019-03-18T03:19:11.734Z,94.90
2019-03-18T03:21:39.023Z,95.00
2019-03-18T03:24:06.346Z,95.00
2019-03-18T03:26:33.558Z,94.90
2019-03-18T03:29:00.877Z,94.90
2019-03-18T03:31:28.201Z,94.90
2019-03-18T03:33:55.504Z,94.90
2019-03-18T03:36:22.690Z,94.90
2019-03-18T03:38:49.905Z,95.00
2019-03-18T03:41:18.228Z,95.00
2019-03-18T03:43:46.028Z,95.30
2019-03-18T03:46:13.217Z,95.00
2019-03-18T03:48:40.569Z,95.10
2019-03-18T03:51:07.901Z,95.00
2019-03-18T03:53:35.225Z,95.10
2019-03-18T03:56:02.519Z,95.10
2019-03-18T03:58:29.860Z,95.10
2019-03-18T04:00:57.071Z,95.20
2019-03-18T04:03:37.575Z,95.20
2019-03-18T04:05:53.385Z,95.30
2019-03-18T04:08:20.803Z,95.50
2019-03-18T04:10:48.147Z,95.50
2019-03-18T04:13:15.486Z,95.60
2019-03-18T04:15:42.859Z,95.50
2019-03-18T04:18:10.230Z,95.50
2019-03-18T04:20:37.595Z,95.50
2019-03-18T04:23:04.928Z,95.50
2019-03-18T04:25:32.133Z,95.30
2019-03-18T04:28:00.990Z,95.30
2019-03-18T04:30:28.362Z,95.30
2019-03-18T04:32:55.848Z,95.20
2019-03-18T04:35:23.078Z,95.20
2019-03-18T04:37:50.509Z,95.20
2019-03-18T04:40:17.838Z,95.10
2019-03-18T04:42:45.103Z,95.10
2019-03-18T04:45:12.435Z,95.00
2019-03-18T04:47:39.723Z,95.00
2019-03-18T04:50:07.060Z,94.90
2019-03-18T04:52:34.314Z,94.90
2019-03-18T04:55:01.664Z,95.00
2019-03-18T04:57:29.013Z,95.00
2019-03-18T04:59:56.363Z,95.10
2019-03-18T05:02:23.847Z,95.20
2019-03-18T05:04:51.247Z,95.20
2019-03-18T05:07:18.655Z,95.30
2019-03-18T05:09:46.159Z,95.30
2019-03-18T05:12:13.509Z,95.30
2019-03-18T05:14:40.860Z,95.20
2019-03-18T05:17:08.180Z,95.30
2019-03-18T05:19:35.531Z,95.30
2019-03-18T05:22:02.908Z,95.30
2019-03-18T05:24:30.289Z,95.20
2019-03-18T05:26:57.681Z,95.20
2019-03-18T05:29:25.184Z,95.20
2019-03-18T05:31:52.541Z,95.20
2019-03-18T05:34:19.960Z,95.20
2019-03-18T05:36:47.387Z,95.10
2019-03-18T05:39:14.862Z,95.10
2019-03-18T05:41:42.182Z,95.10
2019-03-18T05:44:09.567Z,95.10
2019-03-18T05:46:36.914Z,95.10
2019-03-18T05:49:04.355Z,95.10
2019-03-18T05:51:31.668Z,95.10
2019-03-18T05:53:59.024Z,95.10
2019-03-18T05:56:26.372Z,95.20
2019-03-18T05:58:53.705Z,95.20
2019-03-18T06:01:21.016Z,95.20
2019-03-18T06:03:48.410Z,95.20
2019-03-18T06:06:15.767Z,95.20
2019-03-18T06:08:43.516Z,95.20
2019-03-18T06:11:10.763Z,95.20
2019-03-18T06:13:38.000Z,95.20
2019-03-18T06:16:05.332Z,95.10
2019-03-18T06:18:32.665Z,95.10
2019-03-18T06:21:00.009Z,95.10
2019-03-18T06:23:27.236Z,95.10
2019-03-18T06:25:54.619Z,95.10
2019-03-18T06:28:21.999Z,95.00
2019-03-18T06:30:49.215Z,95.00
2019-03-18T06:33:16.515Z,95.00
2019-03-18T06:35:43.841Z,95.00
2019-03-18T06:38:11.180Z,94.90
2019-03-18T06:40:38.377Z,94.90
2019-03-18T06:43:05.580Z,94.90
2019-03-18T06:45:32.979Z,94.90
2019-03-18T06:48:05.141Z,94.80
2019-03-18T06:50:29.527Z,94.80
2019-03-18T06:52:56.764Z,94.70
2019-03-18T06:55:24.150Z,94.70
2019-03-18T06:57:51.469Z,94.70
2019-03-18T07:00:18.870Z,94.70
2019-03-18T07:02:46.404Z,94.70
2019-03-18T07:05:13.708Z,94.70
2019-03-18T07:07:41.069Z,94.60
2019-03-18T07:10:08.425Z,94.40
2019-03-18T07:12:35.628Z,94.20
2019-03-18T07:15:03.051Z,93.90
2019-03-18T07:17:30.405Z,93.70
2019-03-18T07:19:57.640Z,93.70
2019-03-18T07:22:24.956Z,93.70
2019-03-18T07:24:52.312Z,93.80
2019-03-18T07:27:19.652Z,93.70
2019-03-18T07:29:46.964Z,93.70
2019-03-18T07:32:14.156Z,93.60
2019-03-18T07:34:41.474Z,93.60
2019-03-18T07:37:09.095Z,93.60
2019-03-18T07:39:36.295Z,93.50
2019-03-18T07:42:03.509Z,93.40
2019-03-18T07:44:30.944Z,93.40
2019-03-18T07:46:58.254Z,93.30
2019-03-18T07:49:25.567Z,93.20
2019-03-18T07:51:52.793Z,93.10
2019-03-18T07:54:31.859Z,92.90
2019-03-18T07:56:49.102Z,93.10
2019-03-18T07:59:16.300Z,92.50
2019-03-18T08:01:43.654Z,92.50
2019-03-18T08:04:11.089Z,92.30
2019-03-18T08:06:38.421Z,92.00
2019-03-18T08:09:07.475Z,91.70
2019-03-18T08:11:34.804Z,91.30
2019-03-18T08:14:02.049Z,90.90
2019-03-18T08:16:29.457Z,90.70
2019-03-18T08:18:56.793Z,90.50
2019-03-18T08:21:24.035Z,90.10
2019-03-18T08:23:51.245Z,89.70
2019-03-18T08:26:18.495Z,89.60
2019-03-18T08:28:45.793Z,89.30
2019-03-18T08:31:13.016Z,89.10
2019-03-18T08:33:40.332Z,88.70
2019-03-18T08:36:07.575Z,88.80
2019-03-18T08:38:34.786Z,88.30
2019-03-18T08:41:02.115Z,87.70
2019-03-18T08:43:29.400Z,87.00
2019-03-18T08:45:56.734Z,86.10
2019-03-18T08:48:23.988Z,86.10
2019-03-18T08:50:51.239Z,85.40
2019-03-18T08:53:18.573Z,85.00
2019-03-18T08:55:45.925Z,84.40
2019-03-18T08:58:13.506Z,84.10
2019-03-18T09:00:40.902Z,82.90
2019-03-18T09:03:08.120Z,82.10
2019-03-18T09:05:35.449Z,81.40
2019-03-18T09:08:02.663Z,81.00
2019-03-18T09:10:30.022Z,78.90
2019-03-18T09:12:57.269Z,77.50
2019-03-18T09:15:24.636Z,76.90
2019-03-18T09:17:51.989Z,76.50
2019-03-18T09:20:19.340Z,77.20
2019-03-18T09:22:46.590Z,78.40
2019-03-18T09:25:13.906Z,78.00
2019-03-18T09:27:41.242Z,77.40
2019-03-18T09:30:09.858Z,77.20
2019-03-18T09:32:37.248Z,77.00
2019-03-18T09:35:04.616Z,76.80
2019-03-18T09:37:31.965Z,76.70
2019-03-18T09:39:59.181Z,75.50
2019-03-18T09:42:26.480Z,73.20
2019-03-18T09:44:53.690Z,71.00
2019-03-18T09:47:21.074Z,68.20
2019-03-18T09:49:48.488Z,65.40
2019-03-18T09:52:15.705Z,61.20
2019-03-18T09:54:43.005Z,54.70
2019-03-18T09:57:10.298Z,52.30
2019-03-18T09:59:37.500Z,51.90
2019-03-18T10:02:05.120Z,52.60
2019-03-18T10:04:32.359Z,53.90
2019-03-18T10:06:59.545Z,55.00
2019-03-18T10:09:26.869Z,55.60
2019-03-18T10:11:54.182Z,51.60
2019-03-18T10:14:21.416Z,47.20
2019-03-18T10:16:48.796Z,43.10
2019-03-18T10:19:16.122Z,40.20
2019-03-18T10:21:43.358Z,38.20
2019-03-18T10:24:10.564Z,37.20
2019-03-18T10:26:37.776Z,35.00
2019-03-18T10:29:05.078Z,33.20
2019-03-18T10:31:32.403Z,33.20
2019-03-18T10:33:59.610Z,31.40
2019-03-18T10:36:26.973Z,30.40
2019-03-18T10:38:54.540Z,30.50
2019-03-18T10:41:21.852Z,30.50
2019-03-18T10:43:49.045Z,30.50
2019-03-18T10:46:16.343Z,30.70
2019-03-18T10:48:43.681Z,30.80
2019-03-18T10:51:10.999Z,31.40
2019-03-18T10:53:38.329Z,31.10
2019-03-18T10:56:08.118Z,31.00
2019-03-18T10:58:34.758Z,31.30
2019-03-18T11:01:01.947Z,31.20
2019-03-18T11:03:29.174Z,31.50
2019-03-18T11:05:56.382Z,32.80
2019-03-18T11:08:23.631Z,35.50
2019-03-18T11:10:50.896Z,37.60
2019-03-18T11:13:18.281Z,37.30
2019-03-18T11:15:45.581Z,35.60
2019-03-18T11:18:12.939Z,33.90
2019-03-18T11:20:40.135Z,31.90
2019-03-18T11:23:07.464Z,31.70
2019-03-18T11:25:34.777Z,32.70
2019-03-18T11:28:02.111Z,34.60
2019-03-18T11:30:29.446Z,34.50
2019-03-18T11:32:56.657Z,33.40
2019-03-18T11:35:23.990Z,34.10
2019-03-18T11:37:51.376Z,35.30
2019-03-18T11:40:18.619Z,37.60
2019-03-18T11:42:45.837Z,40.00
2019-03-18T11:45:13.235Z,42.30
2019-03-18T11:47:40.550Z,44.70
2019-03-18T11:50:11.258Z,47.80
2019-03-18T11:52:37.487Z,51.20
2019-03-18T11:55:05.936Z,54.20
2019-03-18T11:57:33.280Z,57.00
2019-03-18T12:00:00.553Z,58.60
2019-03-18T12:02:28.245Z,59.60
2019-03-18T12:04:57.641Z,60.70
2019-03-18T12:07:24.732Z,61.80
2019-03-18T12:09:52.076Z,62.10
2019-03-18T12:12:19.408Z,62.10
2019-03-18T12:14:46.724Z,62.10
2019-03-18T12:17:13.997Z,61.20
2019-03-18T12:19:41.339Z,61.00
2019-03-18T12:22:08.685Z,60.70
2019-03-18T12:24:36.041Z,60.00
2019-03-18T12:27:03.391Z,59.60
2019-03-18T12:29:30.720Z,59.10
2019-03-18T12:31:58.057Z,58.60
2019-03-18T12:34:25.301Z,57.80
2019-03-18T12:36:52.525Z,56.20
2019-03-18T12:39:19.955Z,54.90
2019-03-18T12:41:47.273Z,52.50
2019-03-18T12:44:14.505Z,49.80
2019-03-18T12:46:41.749Z,47.90
2019-03-18T12:49:08.990Z,47.30
2019-03-18T12:51:36.295Z,47.40
2019-03-18T12:54:03.621Z,47.90
2019-03-18T12:56:30.850Z,48.10
2019-03-18T12:58:58.165Z,48.00
2019-03-18T13:01:25.485Z,48.10
2019-03-18T13:03:52.833Z,48.30
2019-03-18T13:06:20.143Z,48.20
2019-03-18T13:08:47.357Z,48.00
2019-03-18T13:11:14.577Z,47.60
2019-03-18T13:13:41.905Z,47.30
2019-03-18T13:16:09.275Z,47.60
2019-03-18T13:18:36.580Z,47.70
2019-03-18T13:21:08.108Z,47.60
2019-03-18T13:23:33.055Z,48.00
2019-03-18T13:26:00.354Z,48.20
2019-03-18T13:28:27.684Z,48.00
2019-03-18T13:30:54.995Z,48.00
2019-03-18T13:33:22.294Z,47.90
2019-03-18T13:35:49.526Z,48.60
2019-03-18T13:38:16.754Z,48.70
2019-03-18T13:40:45.955Z,48.60
2019-03-18T13:43:13.257Z,48.90
2019-03-18T13:45:40.571Z,49.20
2019-03-18T13:48:07.870Z,50.00
2019-03-18T13:50:35.290Z,51.00
2019-03-18T13:53:02.607Z,52.80
2019-03-18T13:55:29.923Z,55.80
2019-03-18T13:57:57.176Z,58.80
2019-03-18T14:00:24.391Z,62.60
2019-03-18T14:02:51.716Z,66.00
2019-03-18T14:05:19.021Z,70.20
2019-03-18T14:07:58.988Z,75.80
2019-03-18T14:10:15.601Z,78.50
2019-03-18T14:12:42.925Z,80.50
2019-03-18T14:15:12.840Z,81.20
2019-03-18T14:17:40.155Z,80.90
2019-03-18T14:20:08.553Z,80.80
2019-03-18T14:22:35.769Z,80.90
2019-03-18T14:25:03.448Z,81.00
2019-03-18T14:27:30.802Z,81.80
2019-03-18T14:29:58.016Z,80.70
2019-03-18T14:32:25.344Z,80.10
2019-03-18T14:34:52.647Z,79.40
2019-03-18T14:37:19.976Z,79.20
2019-03-18T14:39:47.297Z,78.70
2019-03-18T14:42:14.521Z,78.30
2019-03-18T14:44:41.863Z,78.20
2019-03-18T14:47:09.178Z,78.10
2019-03-18T14:49:36.383Z,77.50
2019-03-18T14:52:03.703Z,76.30
2019-03-18T14:54:31.033Z,75.00
2019-03-18T14:56:58.239Z,72.90
2019-03-18T14:59:25.576Z,71.00
2019-03-18T15:01:52.919Z,70.20
2019-03-18T15:04:20.146Z,69.10
2019-03-18T15:06:47.487Z,67.70
2019-03-18T15:09:14.792Z,66.70
2019-03-18T15:11:42.006Z,65.70
2019-03-18T15:14:09.222Z,63.90
2019-03-18T15:16:36.458Z,63.80
2019-03-18T15:19:03.758Z,63.50
2019-03-18T15:21:30.951Z,63.70
2019-03-18T15:23:58.173Z,63.60
2019-03-18T15:26:25.458Z,63.30
2019-03-18T15:28:52.814Z,62.70
2019-03-18T15:31:20.156Z,62.40
2019-03-18T15:33:47.505Z,62.40
2019-03-18T15:36:14.802Z,62.10
2019-03-18T15:38:42.144Z,61.30
2019-03-18T15:41:09.474Z,61.10
2019-03-18T15:43:36.845Z,60.60
2019-03-18T15:46:04.095Z,60.60
2019-03-18T15:48:31.321Z,60.10
2019-03-18T15:50:58.620Z,59.80
2019-03-18T15:53:25.964Z,59.70
2019-03-18T15:55:53.344Z,59.70
2019-03-18T15:58:20.561Z,59.70
2019-03-18T16:00:47.873Z,59.30
2019-03-18T16:03:15.147Z,59.20
2019-03-18T16:05:42.455Z,59.20
2019-03-18T16:08:09.655Z,59.20
2019-03-18T16:10:36.987Z,59.40
2019-03-18T16:13:04.322Z,59.30
2019-03-18T16:15:31.634Z,59.10
2019-03-18T16:17:58.958Z,59.30
2019-03-18T16:20:27.428Z,59.50
2019-03-18T16:22:54.633Z,59.90
2019-03-18T16:25:21.860Z,60.00
2019-03-18T16:27:49.179Z,60.00
2019-03-18T16:30:16.517Z,60.00
2019-03-18T16:32:44.026Z,60.00
2019-03-18T16:35:11.637Z,60.30
2019-03-18T16:37:38.969Z,61.00
2019-03-18T16:40:07.393Z,61.40
2019-03-18T16:42:34.726Z,61.60
2019-03-18T16:45:02.028Z,61.80
2019-03-18T16:47:31.406Z,62.10
2019-03-18T16:49:58.613Z,61.60
2019-03-18T16:52:35.237Z,60.10
2019-03-18T16:54:55.069Z,59.10
2019-03-18T16:57:22.399Z,58.20
2019-03-18T16:59:49.590Z,57.90
2019-03-18T17:02:16.789Z,57.50
2019-03-18T17:04:44.089Z,57.40
2019-03-18T17:07:11.411Z,57.50
2019-03-18T17:09:38.778Z,57.40
2019-03-18T17:12:06.124Z,57.10
2019-03-18T17:14:33.471Z,57.30
2019-03-18T17:17:00.826Z,57.30
2019-03-18T17:19:28.047Z,57.50
2019-03-18T17:21:55.274Z,57.60
2019-03-18T17:24:22.588Z,57.50
2019-03-18T17:26:49.836Z,57.30
2019-03-18T17:29:17.164Z,57.20
2019-03-18T17:31:44.474Z,57.30
2019-03-18T17:34:11.796Z,57.40
2019-03-18T17:36:39.086Z,57.60
2019-03-18T17:39:07.478Z,57.80
2019-03-18T17:41:34.670Z,57.90
2019-03-18T17:44:02.016Z,58.00
2019-03-18T17:46:29.355Z,58.30
2019-03-18T17:48:56.685Z,58.50
2019-03-18T17:51:23.876Z,58.50
2019-03-18T17:53:51.092Z,58.50
2019-03-18T17:56:29.677Z,59.00
2019-03-18T17:58:47.508Z,58.40
2019-03-18T18:01:14.938Z,58.60
2019-03-18T18:03:42.402Z,58.50
2019-03-18T18:06:09.598Z,58.70
2019-03-18T18:08:36.788Z,58.90
2019-03-18T18:11:04.088Z,59.10
2019-03-18T18:13:31.894Z,59.10
2019-03-18T18:15:59.118Z,59.10
2019-03-18T18:18:26.504Z,59.30
2019-03-18T18:20:53.816Z,59.30
2019-03-18T18:23:21.203Z,59.40
2019-03-18T18:25:48.527Z,59.50
2019-03-18T18:28:15.994Z,59.50
2019-03-18T18:30:43.278Z,59.60
2019-03-18T18:33:10.574Z,59.80
2019-03-18T18:35:37.820Z,60.30
2019-03-18T18:38:05.164Z,61.00
2019-03-18T18:40:32.382Z,61.50
2019-03-18T18:42:59.684Z,62.00
2019-03-18T18:45:26.985Z,62.60
2019-03-18T18:47:54.237Z,63.80
2019-03-18T18:50:21.609Z,64.00
2019-03-18T18:52:48.944Z,64.40
2019-03-18T18:55:16.344Z,64.80
2019-03-18T18:57:43.676Z,65.00
2019-03-18T19:00:12.948Z,65.40
2019-03-18T19:02:40.274Z,66.10
2019-03-18T19:05:09.042Z,66.60
2019-03-18T19:07:36.297Z,67.20
2019-03-18T19:10:04.177Z,67.80
2019-03-18T19:12:31.392Z,68.30
2019-03-18T19:14:58.718Z,68.80
2019-03-18T19:17:26.046Z,69.30
2019-03-18T19:19:53.380Z,69.90
2019-03-18T19:22:20.688Z,70.30
2019-03-18T19:24:48.030Z,70.80
2019-03-18T19:27:15.381Z,71.20
2019-03-18T19:29:42.786Z,71.50
2019-03-18T19:32:10.256Z,71.80
2019-03-18T19:34:37.650Z,71.90
2019-03-18T19:37:04.984Z,72.30
2019-03-18T19:39:32.362Z,72.40
2019-03-18T19:41:59.768Z,72.50
2019-03-18T19:44:27.104Z,72.70
2019-03-18T19:46:54.560Z,72.80
2019-03-18T19:49:21.883Z,72.90
2019-03-18T19:51:49.265Z,73.10
2019-03-18T19:54:16.655Z,73.20
2019-03-18T19:56:44.021Z,73.40
2019-03-18T19:59:11.383Z,73.60
2019-03-18T20:01:38.687Z,73.70
2019-03-18T20:04:06.086Z,73.80
2019-03-18T20:06:33.445Z,73.90
2019-03-18T20:09:00.799Z,74.10
2019-03-18T20:11:28.232Z,74.30
2019-03-18T20:13:55.686Z,74.50
2019-03-18T20:16:23.120Z,74.80
2019-03-18T20:18:50.522Z,75.00
2019-03-18T20:21:17.908Z,75.20
2019-03-18T20:23:45.342Z,75.60
2019-03-18T20:26:12.701Z,76.00
2019-03-18T20:28:40.146Z,76.20
2019-03-18T20:31:07.535Z,76.50
2019-03-18T20:33:34.979Z,77.00
2019-03-18T20:36:02.363Z,77.30
2019-03-18T20:38:29.679Z,77.60
2019-03-18T20:40:57.084Z,77.90
2019-03-18T20:43:24.317Z,78.20
2019-03-18T20:45:51.581Z,78.60
2019-03-18T20:48:18.953Z,78.70
2019-03-18T20:50:46.398Z,78.70
2019-03-18T20:53:13.765Z,78.50
2019-03-18T20:55:41.193Z,78.20
2019-03-18T20:58:08.607Z,77.80
2019-03-18T21:00:36.031Z,77.50
2019-03-18T21:03:03.481Z,77.20
2019-03-18T21:05:30.873Z,77.00
2019-03-18T21:07:58.225Z,77.00
2019-03-18T21:10:25.643Z,76.90
2019-03-18T21:12:53.073Z,76.90
2019-03-18T21:15:20.394Z,76.90
2019-03-18T21:17:47.818Z,76.90
2019-03-18T21:20:15.301Z,76.90
2019-03-18T21:22:42.706Z,77.00
2019-03-18T21:25:10.335Z,77.00
2019-03-18T21:27:37.582Z,77.10
2019-03-18T21:30:05.020Z,77.30
2019-03-18T21:32:32.353Z,78.10
2019-03-18T21:35:00.881Z,77.40
2019-03-18T21:37:28.169Z,77.40
2019-03-18T21:39:55.523Z,77.50
2019-03-18T21:42:22.953Z,77.70
2019-03-18T21:44:50.299Z,77.80
2019-03-18T21:47:17.649Z,77.80
2019-03-18T21:49:45.037Z,78.00
2019-03-18T21:52:12.404Z,78.10
2019-03-18T21:54:39.705Z,78.40
2019-03-18T21:57:06.991Z,78.80
2019-03-18T21:59:34.333Z,79.10
2019-03-18T22:02:01.757Z,79.40
2019-03-18T22:04:29.083Z,79.70
2019-03-18T22:06:56.456Z,79.90
2019-03-18T22:09:23.798Z,80.10
2019-03-18T22:11:51.173Z,80.20
2019-03-18T22:14:18.513Z,80.50
2019-03-18T22:16:45.874Z,80.70
2019-03-18T22:19:15.739Z,80.80
2019-03-18T22:21:42.553Z,81.10
2019-03-18T22:24:09.806Z,81.30
2019-03-18T22:26:37.233Z,81.60
2019-03-18T22:29:04.588Z,82.50
2019-03-18T22:31:31.957Z,82.00
2019-03-18T22:33:59.336Z,82.30
2019-03-18T22:36:26.664Z,82.50
2019-03-18T22:38:53.992Z,82.70
2019-03-18T22:41:21.306Z,82.90
2019-03-18T22:43:48.664Z,83.10
2019-03-18T22:46:15.975Z,83.20
2019-03-18T22:48:43.250Z,83.20
2019-03-18T22:51:10.602Z,83.30
2019-03-18T22:53:37.971Z,83.60
2019-03-18T22:56:05.325Z,83.70
2019-03-18T22:58:32.653Z,83.90
2019-03-18T23:01:07.879Z,84.20
2019-03-18T23:03:35.157Z,84.50
2019-03-18T23:06:02.474Z,84.80
2019-03-18T23:08:29.882Z,85.00
2019-03-18T23:10:57.223Z,85.20
2019-03-18T23:13:24.579Z,85.50
2019-03-18T23:15:51.901Z,85.60
2019-03-18T23:18:19.173Z,85.70
2019-03-18T23:20:46.530Z,85.80
2019-03-18T23:23:13.869Z,86.00
2019-03-18T23:25:41.179Z,86.30
2019-03-18T23:28:08.433Z,86.60
2019-03-18T23:30:35.753Z,86.90
2019-03-18T23:33:03.097Z,87.00
2019-03-18T23:35:30.461Z,87.10
2019-03-18T23:37:57.852Z,87.30
2019-03-18T23:40:25.093Z,87.20
2019-03-18T23:42:52.787Z,87.10
2019-03-18T23:45:20.243Z,87.10
2019-03-18T23:47:47.591Z,87.20
2019-03-18T23:50:15.079Z,87.30
2019-03-18T23:52:42.397Z,87.40
2019-03-18T23:55:18.188Z,87.60
2019-03-18T23:57:39.073Z,87.70
